EGQK

RAF Kinloss Airport

Kinloss, United Kingdom
METAR EGQK 181950Z AUTO 21012KT 9999 OVC100/// 10/07 Q1022
Observed Flight Rules
Dec-18 @ 19:50 UTC (43 minutes ago) Visual Flight Rules
Wind Visibility Clouds
210° at 12 knots 10,000+ meters
  • Overcast at 10,000' AGL
Temperatures Readings
Current 10°C / 50°F
Dewpoint 7°C / 45°F
Humidity 82%
Altimeter 30.18" Hg
Pressure 1022 hPa
Elevation 7
METAR EGQK 181950Z AUTO 21012KT 9999 OVC100/// 10/07 Q1022
Observed Flight Rules
Dec-18 @ 19:50 UTC
(43 minutes ago)
VFR
Wind Visibility
210° at 12 knots 10,000+ meters
Clouds
  • Overcast at 10,000' AGL
Temperature Dewpoint
10°C / 50°F 7°C / 45°F
Humidity Altimeter Pressure
82% 30.18" Hg 1022 hPa